createdAt,value
2023-05-02T00:00:47.916Z,9.33
2023-05-02T00:02:21.317Z,10.53
2023-05-02T00:03:54.506Z,9.57
2023-05-02T00:05:28.004Z,10.03
2023-05-02T00:07:01.169Z,10.10
2023-05-02T00:08:34.329Z,9.60
2023-05-02T00:10:10.003Z,9.57
2023-05-02T00:11:43.060Z,9.20
2023-05-02T00:13:16.133Z,9.80
2023-05-02T00:14:49.490Z,9.80
2023-05-02T00:16:22.733Z,9.33
2023-05-02T00:17:56.029Z,9.20
2023-05-02T00:19:29.139Z,10.03
2023-05-02T00:21:02.278Z,10.10
2023-05-02T00:22:34.343Z,9.73
2023-05-02T00:24:07.739Z,9.73
2023-05-02T00:25:47.163Z,9.90
2023-05-02T00:27:20.285Z,9.13
2023-05-02T00:28:53.363Z,10.03
2023-05-02T00:30:26.768Z,10.10
2023-05-02T00:31:59.808Z,9.63
2023-05-02T00:33:33.045Z,10.10
2023-05-02T00:35:07.146Z,9.40
2023-05-02T00:36:40.226Z,10.10
2023-05-02T00:38:13.363Z,9.87
2023-05-02T00:39:46.579Z,9.70
2023-05-02T00:41:21.023Z,9.90
2023-05-02T00:42:54.294Z,10.87
2023-05-02T00:44:26.408Z,10.30
2023-05-02T00:46:00.218Z,10.30
2023-05-02T00:47:33.770Z,10.17
2023-05-02T00:49:07.053Z,10.53
2023-05-02T00:50:41.944Z,10.53
2023-05-02T00:52:15.019Z,9.97
2023-05-02T00:53:48.491Z,9.93
2023-05-02T00:55:21.645Z,10.30
2023-05-02T00:56:56.084Z,9.47
2023-05-02T00:58:29.646Z,10.47
2023-05-02T01:00:04.629Z,10.60
2023-05-02T01:01:51.141Z,9.83
2023-05-02T01:03:35.843Z,10.13
2023-05-02T01:05:16.773Z,10.00
2023-05-02T01:06:59.718Z,10.40
2023-05-02T01:08:41.270Z,10.13
2023-05-02T01:10:24.992Z,10.43
2023-05-02T01:12:04.445Z,10.70
2023-05-02T01:13:39.950Z,10.07
2023-05-02T01:15:18.406Z,10.70
2023-05-02T01:16:53.641Z,9.97
2023-05-02T01:18:31.648Z,10.27
2023-05-02T01:20:08.138Z,10.23
2023-05-02T01:21:42.740Z,9.70
2023-05-02T01:23:24.406Z,9.70
2023-05-02T01:25:05.869Z,10.03
2023-05-02T01:26:48.677Z,10.53
2023-05-02T01:28:32.473Z,10.30
2023-05-02T01:30:09.465Z,9.80
2023-05-02T01:31:45.185Z,10.07
2023-05-02T01:33:20.159Z,10.10
2023-05-02T01:34:55.252Z,10.37
2023-05-02T01:36:30.334Z,10.03
2023-05-02T01:38:04.751Z,9.20
2023-05-02T01:39:41.088Z,9.00
2023-05-02T01:41:15.327Z,9.70
2023-05-02T01:42:51.185Z,9.83
2023-05-02T01:44:25.417Z,9.23
2023-05-02T01:46:02.025Z,9.80
2023-05-02T01:47:37.536Z,9.50
2023-05-02T01:49:11.604Z,10.00
2023-05-02T01:50:46.823Z,9.57
2023-05-02T01:52:22.720Z,9.00
2023-05-02T01:53:55.883Z,9.57
2023-05-02T01:55:29.590Z,9.83
2023-05-02T01:57:06.127Z,9.40
2023-05-02T01:58:40.059Z,9.50
2023-05-02T02:00:14.900Z,9.20
2023-05-02T02:01:51.561Z,9.30
2023-05-02T02:03:25.564Z,9.80
2023-05-02T02:05:00.801Z,9.37
2023-05-02T02:06:34.242Z,9.10
2023-05-02T02:08:07.570Z,9.97
2023-05-02T02:09:40.834Z,9.53
2023-05-02T02:11:18.216Z,9.20
2023-05-02T02:12:55.150Z,9.73
2023-05-02T02:14:33.327Z,10.13
2023-05-02T02:16:11.776Z,9.73
2023-05-02T02:17:49.358Z,9.73
2023-05-02T02:19:23.874Z,9.83
2023-05-02T02:21:00.853Z,10.27
2023-05-02T02:22:37.277Z,9.27
2023-05-02T02:24:11.693Z,9.97
2023-05-02T02:25:46.316Z,9.83
2023-05-02T02:27:22.360Z,9.10
2023-05-02T02:28:56.115Z,9.00
2023-05-02T02:30:28.439Z,10.50
2023-05-02T02:32:01.505Z,9.77
2023-05-02T02:33:36.062Z,9.90
2023-05-02T02:35:10.428Z,9.57
2023-05-02T02:36:48.737Z,10.00
2023-05-02T02:38:28.204Z,9.93
2023-05-02T02:40:09.328Z,9.33
2023-05-02T02:41:48.888Z,9.80
2023-05-02T02:43:26.606Z,10.30
2023-05-02T02:45:08.264Z,9.50
2023-05-02T02:47:02.606Z,9.90
2023-05-02T02:48:44.431Z,9.93
2023-05-02T02:50:21.799Z,9.57
2023-05-02T02:52:03.036Z,10.17
2023-05-02T02:53:47.968Z,9.70
2023-05-02T02:55:30.797Z,9.73
2023-05-02T02:57:13.183Z,10.30
2023-05-02T02:58:55.875Z,9.83
2023-05-02T03:00:30.426Z,10.67
2023-05-02T03:02:08.299Z,10.70
2023-05-02T03:03:44.376Z,10.03
2023-05-02T03:05:18.662Z,10.73
2023-05-02T03:06:52.116Z,10.70
2023-05-02T03:08:25.986Z,10.23
2023-05-02T03:09:59.175Z,10.30
2023-05-02T03:11:32.460Z,11.13
2023-05-02T03:13:05.511Z,10.93
2023-05-02T03:14:39.063Z,10.73
2023-05-02T03:16:36.615Z,11.07
2023-05-02T03:18:12.342Z,11.07
2023-05-02T03:19:48.338Z,11.30
2023-05-02T03:21:20.657Z,10.67
2023-05-02T03:22:53.814Z,10.50
2023-05-02T03:24:27.732Z,10.90
2023-05-02T03:26:01.079Z,10.90
2023-05-02T03:27:34.689Z,9.93
2023-05-02T03:29:09.925Z,10.30
2023-05-02T03:30:46.506Z,10.23
2023-05-02T03:32:19.709Z,9.97
2023-05-02T03:33:53.078Z,10.07
2023-05-02T03:35:27.522Z,9.77
2023-05-02T03:37:00.614Z,10.10
2023-05-02T03:38:32.672Z,9.43
2023-05-02T03:40:11.111Z,9.50
2023-05-02T03:41:44.209Z,9.77
2023-05-02T03:43:21.052Z,9.77
2023-05-02T03:44:53.746Z,8.70
2023-05-02T03:46:27.041Z,9.37
2023-05-02T03:48:00.231Z,8.90
2023-05-02T03:49:36.104Z,9.03
2023-05-02T03:51:10.960Z,8.37
2023-05-02T03:52:48.876Z,8.20
2023-05-02T03:54:26.113Z,8.57
2023-05-02T03:56:00.346Z,8.83
2023-05-02T03:57:44.453Z,9.47
2023-05-02T03:59:19.541Z,8.27
2023-05-02T04:00:53.672Z,8.23
2023-05-02T04:02:26.942Z,8.20
2023-05-02T04:04:00.879Z,8.00
2023-05-02T04:05:37.916Z,8.00
2023-05-02T04:07:18.038Z,8.20
2023-05-02T04:08:52.069Z,7.27
2023-05-02T04:10:25.526Z,7.63
2023-05-02T04:12:02.460Z,7.73
2023-05-02T04:13:35.657Z,7.27
2023-05-02T04:15:10.517Z,7.60
2023-05-02T04:16:43.642Z,7.60
2023-05-02T04:18:16.901Z,8.63
2023-05-02T04:19:51.438Z,7.40
2023-05-02T04:21:25.852Z,7.83
2023-05-02T04:23:00.292Z,8.03
2023-05-02T04:24:33.446Z,7.77
2023-05-02T04:26:07.133Z,7.70
2023-05-02T04:27:52.577Z,6.67
2023-05-02T04:29:28.472Z,7.37
2023-05-02T04:31:01.647Z,7.37
2023-05-02T04:32:34.915Z,7.63
2023-05-02T04:34:09.224Z,7.77
2023-05-02T04:35:48.241Z,7.40
2023-05-02T04:37:22.719Z,7.73
2023-05-02T04:38:57.519Z,7.47
2023-05-02T04:40:31.770Z,6.80
2023-05-02T04:42:09.840Z,7.40
2023-05-02T04:43:49.988Z,7.73
2023-05-02T04:45:23.956Z,7.73
2023-05-02T04:46:57.940Z,7.23
2023-05-02T04:48:31.066Z,7.40
2023-05-02T04:50:04.290Z,7.40
2023-05-02T04:51:37.377Z,7.47
2023-05-02T04:53:10.524Z,7.30
2023-05-02T04:54:45.663Z,7.50
2023-05-02T04:56:18.783Z,6.90
2023-05-02T04:57:52.751Z,6.97
2023-05-02T04:59:24.941Z,7.50
2023-05-02T05:00:58.090Z,6.83
2023-05-02T05:02:31.263Z,7.57
2023-05-02T05:04:05.124Z,7.43
2023-05-02T05:05:38.463Z,7.03
2023-05-02T05:07:14.503Z,6.80
2023-05-02T05:08:50.244Z,6.93
2023-05-02T05:10:24.797Z,7.33
2023-05-02T05:11:57.903Z,6.73
2023-05-02T05:13:31.931Z,7.43
2023-05-02T05:15:05.771Z,7.33
2023-05-02T05:16:39.008Z,6.77
2023-05-02T05:18:12.229Z,6.63
2023-05-02T05:19:45.326Z,6.97
2023-05-02T05:21:18.778Z,6.97
2023-05-02T05:22:52.935Z,7.13
2023-05-02T05:24:27.546Z,6.83
2023-05-02T05:26:11.917Z,6.63
2023-05-02T05:27:47.104Z,6.83
2023-05-02T05:29:20.820Z,6.80
2023-05-02T05:30:54.002Z,7.03
2023-05-02T05:32:29.503Z,7.73
2023-05-02T05:34:03.154Z,7.27
2023-05-02T05:35:36.697Z,7.03
2023-05-02T05:37:09.893Z,6.80
2023-05-02T05:38:43.115Z,7.30
2023-05-02T05:40:17.944Z,6.70
2023-05-02T05:41:57.584Z,6.70
2023-05-02T05:43:30.968Z,6.60
2023-05-02T05:45:06.238Z,6.93
2023-05-02T05:46:39.346Z,7.47
2023-05-02T05:48:14.277Z,6.77
2023-05-02T05:49:54.247Z,7.10
2023-05-02T05:51:28.737Z,6.97
2023-05-02T05:53:04.492Z,6.53
2023-05-02T05:54:37.698Z,6.90
2023-05-02T05:56:11.391Z,6.77
2023-05-02T05:57:47.913Z,6.67
2023-05-02T05:59:21.415Z,6.87
2023-05-02T06:00:54.951Z,6.43
2023-05-02T06:02:28.144Z,6.50
2023-05-02T06:04:03.069Z,6.77
2023-05-02T06:05:36.380Z,6.43
2023-05-02T06:07:09.507Z,6.57
2023-05-02T06:08:43.012Z,6.67
2023-05-02T06:10:16.280Z,6.23
2023-05-02T06:11:50.300Z,6.50
2023-05-02T06:13:25.299Z,5.97
2023-05-02T06:14:58.471Z,5.87
2023-05-02T06:16:31.583Z,6.43
2023-05-02T06:18:04.960Z,6.67
2023-05-02T06:19:38.089Z,6.00
2023-05-02T06:21:12.856Z,5.87
2023-05-02T06:22:46.171Z,5.67
2023-05-02T06:24:23.888Z,5.90
2023-05-02T06:26:00.758Z,5.77
2023-05-02T06:27:33.913Z,6.30
2023-05-02T06:29:08.368Z,5.93
2023-05-02T06:30:41.878Z,5.77
2023-05-02T06:32:14.921Z,5.90
2023-05-02T06:33:48.190Z,5.67
2023-05-02T06:35:21.539Z,5.43
2023-05-02T06:36:56.764Z,5.50
2023-05-02T06:38:30.158Z,5.23
2023-05-02T06:40:03.942Z,4.90
2023-05-02T06:41:37.323Z,5.53
2023-05-02T06:43:10.429Z,5.37
2023-05-02T06:44:44.836Z,5.47
2023-05-02T06:46:18.841Z,5.70
2023-05-02T06:47:51.982Z,5.77
2023-05-02T06:49:25.144Z,5.47
2023-05-02T06:50:58.229Z,5.37
2023-05-02T06:52:31.330Z,5.50
2023-05-02T06:54:04.712Z,5.30
2023-05-02T06:55:37.984Z,5.00
2023-05-02T06:57:11.474Z,5.67
2023-05-02T06:58:44.618Z,5.20
2023-05-02T07:00:20.293Z,5.23
2023-05-02T07:01:53.370Z,5.03
2023-05-02T07:03:26.474Z,5.50
2023-05-02T07:04:59.575Z,5.70
2023-05-02T07:06:32.751Z,5.50
2023-05-02T07:08:06.171Z,5.23
2023-05-02T07:09:39.229Z,5.87
2023-05-02T07:11:12.286Z,5.13
2023-05-02T07:12:45.381Z,5.37
2023-05-02T07:14:18.456Z,5.07
2023-05-02T07:15:52.943Z,5.60
2023-05-02T07:17:26.530Z,5.80
2023-05-02T07:19:00.149Z,5.47
2023-05-02T07:20:33.332Z,5.57
2023-05-02T07:22:07.356Z,4.70
2023-05-02T07:23:40.457Z,5.20
2023-05-02T07:25:13.527Z,5.50
2023-05-02T07:26:46.652Z,5.20
2023-05-02T07:28:19.695Z,5.10
2023-05-02T07:29:52.845Z,5.10
2023-05-02T07:31:27.310Z,5.03
2023-05-02T07:33:00.542Z,4.50
2023-05-02T07:34:33.855Z,4.27
2023-05-02T07:36:07.242Z,4.40
2023-05-02T07:37:40.344Z,4.50
2023-05-02T07:39:13.516Z,4.63
2023-05-02T07:40:47.055Z,4.43
2023-05-02T07:42:20.161Z,4.50
2023-05-02T07:43:53.281Z,4.53
2023-05-02T07:45:26.319Z,4.47
2023-05-02T07:47:00.787Z,4.33
2023-05-02T07:48:34.114Z,4.60
2023-05-02T07:50:09.064Z,4.50
2023-05-02T07:51:42.573Z,4.33
2023-05-02T07:53:15.728Z,4.73
2023-05-02T07:54:49.721Z,4.43
2023-05-02T07:56:22.936Z,4.73
2023-05-02T07:57:56.049Z,4.77
2023-05-02T07:59:29.151Z,4.93
2023-05-02T08:01:02.235Z,4.53
2023-05-02T08:02:37.648Z,4.37
2023-05-02T08:04:11.656Z,4.57
2023-05-02T08:05:44.984Z,4.80
2023-05-02T08:07:18.103Z,5.70
2023-05-02T08:08:51.483Z,5.57
2023-05-02T08:10:24.866Z,5.43
2023-05-02T08:11:58.531Z,5.23
2023-05-02T08:13:31.632Z,4.97
2023-05-02T08:15:06.616Z,5.43
2023-05-02T08:16:39.829Z,5.70
2023-05-02T08:18:14.423Z,5.63
2023-05-02T08:19:47.491Z,5.27
2023-05-02T08:21:20.635Z,5.20
2023-05-02T08:22:53.683Z,5.57
2023-05-02T08:24:26.890Z,4.90
2023-05-02T08:25:59.950Z,5.07
2023-05-02T08:27:35.314Z,5.27
2023-05-02T08:29:08.470Z,5.67
2023-05-02T08:30:41.728Z,5.57
2023-05-02T08:32:14.990Z,5.60
2023-05-02T08:33:49.519Z,5.40
2023-05-02T08:35:22.592Z,5.20
2023-05-02T08:36:58.111Z,5.63
2023-05-02T08:38:31.528Z,5.70
2023-05-02T08:40:05.077Z,5.37
2023-05-02T08:41:39.394Z,5.43
2023-05-02T08:43:13.036Z,4.97
2023-05-02T08:44:46.110Z,5.97
2023-05-02T08:46:19.331Z,5.30
2023-05-02T08:47:53.763Z,5.23
2023-05-02T08:49:30.613Z,5.30
2023-05-02T08:51:04.594Z,6.30
2023-05-02T08:52:38.054Z,5.90
2023-05-02T08:54:11.174Z,6.13
2023-05-02T08:55:44.329Z,5.23
2023-05-02T08:57:17.485Z,5.57
2023-05-02T08:58:51.010Z,5.87
2023-05-02T09:00:24.194Z,6.00
2023-05-02T09:02:02.011Z,5.83
2023-05-02T09:03:36.324Z,5.90
2023-05-02T09:05:13.480Z,6.37
2023-05-02T09:06:46.731Z,5.83
2023-05-02T09:08:23.694Z,6.00
2023-05-02T09:09:57.420Z,6.13
2023-05-02T09:11:30.710Z,6.33
2023-05-02T09:13:31.442Z,5.53
2023-05-02T09:15:11.567Z,5.83
2023-05-02T09:16:45.313Z,6.27
2023-05-02T09:18:23.363Z,5.53
2023-05-02T09:20:01.955Z,5.50
2023-05-02T09:21:41.278Z,5.70
2023-05-02T09:23:14.536Z,5.63
2023-05-02T09:24:55.691Z,5.77
2023-05-02T09:26:32.180Z,4.93
2023-05-02T09:28:05.594Z,4.90
2023-05-02T09:29:40.758Z,4.77
2023-05-02T09:31:23.011Z,4.63
2023-05-02T09:33:05.051Z,4.67
2023-05-02T09:34:39.305Z,4.63
2023-05-02T09:36:15.784Z,4.40
2023-05-02T09:37:54.035Z,4.73
2023-05-02T09:39:29.383Z,4.90
2023-05-02T09:41:03.363Z,5.10
2023-05-02T09:42:36.833Z,6.23
2023-05-02T09:44:12.568Z,5.00
2023-05-02T09:45:58.210Z,5.30
2023-05-02T09:47:31.382Z,6.50
2023-05-02T09:49:04.503Z,5.83
2023-05-02T09:50:38.710Z,6.20
2023-05-02T09:52:12.929Z,5.47
2023-05-02T09:53:47.827Z,6.27
2023-05-02T09:55:22.511Z,7.50
2023-05-02T09:56:57.333Z,8.33
2023-05-02T09:58:31.467Z,7.40
2023-05-02T10:00:05.132Z,6.97
2023-05-02T10:01:46.250Z,6.73
2023-05-02T10:03:19.930Z,6.60
2023-05-02T10:04:54.530Z,6.70
2023-05-02T10:06:28.282Z,6.43
2023-05-02T10:08:01.643Z,8.07
2023-05-02T10:09:37.636Z,8.20
2023-05-02T10:11:13.777Z,7.17
2023-05-02T10:12:49.069Z,7.60
2023-05-02T10:14:23.584Z,7.77
2023-05-02T10:16:01.524Z,7.80
2023-05-02T10:17:43.073Z,7.90
2023-05-02T10:19:23.575Z,9.17
2023-05-02T10:21:01.195Z,9.70
2023-05-02T10:22:35.170Z,9.43
2023-05-02T10:24:09.139Z,8.97
2023-05-02T10:25:43.918Z,8.33
2023-05-02T10:27:17.208Z,8.27
2023-05-02T10:28:51.035Z,9.00
2023-05-02T10:30:24.768Z,8.00
2023-05-02T10:31:58.879Z,8.93
2023-05-02T10:33:35.218Z,9.57
2023-05-02T10:35:08.939Z,9.40
2023-05-02T10:36:42.049Z,9.03
2023-05-02T10:38:19.189Z,8.87
2023-05-02T10:39:56.381Z,9.03
2023-05-02T10:41:33.137Z,9.13
2023-05-02T10:43:06.912Z,9.20
2023-05-02T10:44:42.982Z,9.10
2023-05-02T10:46:32.152Z,8.83
2023-05-02T10:48:18.798Z,8.93
2023-05-02T10:49:53.250Z,8.10
2023-05-02T10:51:30.084Z,8.33
2023-05-02T10:53:27.291Z,8.47
2023-05-02T10:55:17.799Z,8.77
2023-05-02T10:57:06.583Z,8.97
2023-05-02T10:58:39.812Z,9.23
2023-05-02T11:00:23.097Z,9.07
2023-05-02T11:01:56.306Z,9.40
2023-05-02T11:03:58.239Z,8.47
2023-05-02T11:05:36.937Z,8.60
2023-05-02T11:07:20.132Z,8.60
2023-05-02T11:08:53.284Z,9.07
2023-05-02T11:10:28.460Z,8.83
2023-05-02T11:12:04.676Z,8.73
2023-05-02T11:13:51.885Z,8.87
2023-05-02T11:15:55.725Z,8.90
2023-05-02T11:17:28.869Z,9.70
2023-05-02T11:19:02.537Z,10.00
2023-05-02T11:20:36.457Z,9.57
2023-05-02T11:22:33.096Z,9.77
2023-05-02T11:24:40.858Z,10.20
2023-05-02T11:26:23.248Z,10.07
2023-05-02T11:27:56.346Z,9.67
2023-05-02T11:29:54.651Z,9.10
2023-05-02T11:32:03.939Z,10.10
2023-05-02T11:33:37.449Z,9.47
2023-05-02T11:35:16.194Z,9.80
2023-05-02T11:36:49.310Z,9.53
2023-05-02T11:38:22.619Z,10.63
2023-05-02T11:40:11.891Z,11.27
2023-05-02T11:41:47.446Z,10.73
2023-05-02T11:43:22.471Z,11.27
2023-05-02T11:44:59.084Z,11.17
2023-05-02T11:46:32.605Z,10.27
2023-05-02T11:48:07.769Z,11.77
2023-05-02T11:49:41.201Z,12.33
2023-05-02T11:51:14.314Z,10.97
2023-05-02T11:52:48.234Z,11.27
2023-05-02T11:54:21.914Z,11.23
2023-05-02T11:55:56.296Z,11.37
2023-05-02T11:57:29.390Z,10.77
2023-05-02T11:59:03.470Z,10.77
2023-05-02T12:00:38.116Z,11.07
2023-05-02T12:02:11.338Z,12.37
2023-05-02T12:03:45.085Z,11.13
2023-05-02T12:05:29.341Z,11.20
2023-05-02T12:07:02.535Z,10.63
2023-05-02T12:08:35.740Z,10.43
2023-05-02T12:10:10.387Z,9.90
2023-05-02T12:11:43.613Z,9.90
2023-05-02T12:13:16.852Z,10.03
2023-05-02T12:14:49.994Z,10.57
2023-05-02T12:16:24.684Z,10.03
2023-05-02T12:17:57.942Z,9.97
2023-05-02T12:19:31.409Z,9.87
2023-05-02T12:21:07.468Z,11.07
2023-05-02T12:22:40.964Z,10.43
2023-05-02T12:24:15.265Z,10.07
2023-05-02T12:25:48.647Z,10.63
2023-05-02T12:27:21.746Z,10.67
2023-05-02T12:28:55.745Z,9.90
2023-05-02T12:30:29.414Z,9.93
2023-05-02T12:32:03.960Z,10.00
2023-05-02T12:33:43.833Z,10.80
2023-05-02T12:35:23.885Z,9.77
2023-05-02T12:36:57.294Z,9.10
2023-05-02T12:38:30.802Z,7.67
2023-05-02T12:40:04.166Z,7.20
2023-05-02T12:41:39.527Z,7.47
2023-05-02T12:43:12.697Z,8.10
2023-05-02T12:44:47.849Z,7.80
2023-05-02T12:46:21.035Z,8.07
2023-05-02T12:47:55.687Z,8.40
2023-05-02T12:49:28.860Z,7.53
2023-05-02T12:51:01.937Z,7.13
2023-05-02T12:52:57.613Z,8.23
2023-05-02T12:54:30.899Z,9.57
2023-05-02T12:56:04.795Z,9.43
2023-05-02T12:57:37.878Z,9.37
2023-05-02T12:59:26.430Z,9.73
2023-05-02T13:00:59.572Z,9.70
2023-05-02T13:02:32.704Z,8.77
2023-05-02T13:04:07.380Z,8.73
2023-05-02T13:05:40.621Z,8.67
2023-05-02T13:07:13.769Z,8.83
2023-05-02T13:08:46.887Z,9.33
2023-05-02T13:10:20.397Z,9.30
2023-05-02T13:11:54.205Z,9.57
2023-05-02T13:13:27.363Z,10.13
2023-05-02T13:15:00.516Z,9.10
2023-05-02T13:16:36.578Z,10.57
2023-05-02T13:18:10.163Z,9.97
2023-05-02T13:19:54.032Z,9.97
2023-05-02T13:21:33.815Z,9.03
2023-05-02T13:23:06.920Z,10.43
2023-05-02T13:24:40.059Z,9.67
2023-05-02T13:26:13.479Z,9.20
2023-05-02T13:27:46.533Z,10.27
2023-05-02T13:29:19.751Z,9.00
2023-05-02T13:30:52.870Z,9.50
2023-05-02T13:32:26.166Z,9.17
2023-05-02T13:33:59.277Z,8.00
2023-05-02T13:35:35.391Z,8.33
2023-05-02T13:37:08.554Z,8.13
2023-05-02T13:38:41.774Z,7.23
2023-05-02T13:40:14.942Z,7.10
2023-05-02T13:41:47.993Z,7.70
2023-05-02T13:43:21.113Z,8.13
2023-05-02T13:44:54.285Z,7.50
2023-05-02T13:46:27.373Z,7.67
2023-05-02T13:48:00.495Z,9.00
2023-05-02T13:49:33.626Z,8.70
2023-05-02T13:51:08.107Z,8.00
2023-05-02T13:52:41.576Z,8.13
2023-05-02T13:54:15.283Z,8.27
2023-05-02T13:55:48.478Z,8.50
2023-05-02T13:57:21.561Z,8.47
2023-05-02T13:58:54.719Z,8.77
2023-05-02T14:00:29.229Z,8.03
2023-05-02T14:02:02.490Z,6.70
2023-05-02T14:03:35.958Z,6.70
2023-05-02T14:05:10.155Z,7.23
2023-05-02T14:06:44.614Z,7.17
2023-05-02T14:08:19.200Z,7.57
2023-05-02T14:09:52.272Z,7.93
2023-05-02T14:11:25.364Z,8.10
2023-05-02T14:12:58.424Z,7.77
2023-05-02T14:14:31.505Z,7.73
2023-05-02T14:16:04.987Z,8.50
2023-05-02T14:17:38.083Z,8.37
2023-05-02T14:19:11.528Z,8.57
2023-05-02T14:20:44.756Z,9.17
2023-05-02T14:22:19.347Z,9.63
2023-05-02T14:23:52.405Z,10.53
2023-05-02T14:25:25.700Z,11.00
2023-05-02T14:26:59.504Z,11.60
2023-05-02T14:28:32.606Z,11.53
2023-05-02T14:30:06.484Z,11.43
2023-05-02T14:31:39.627Z,10.97
2023-05-02T14:33:12.808Z,11.07
2023-05-02T14:34:45.971Z,11.90
2023-05-02T14:36:19.129Z,11.93
2023-05-02T14:37:53.591Z,11.87
2023-05-02T14:39:27.608Z,12.67
2023-05-02T14:41:02.738Z,11.93
2023-05-02T14:42:35.872Z,10.93
2023-05-02T14:44:09.044Z,10.57
2023-05-02T14:45:42.103Z,9.50
2023-05-02T14:47:15.264Z,9.60
2023-05-02T14:48:48.440Z,9.10
2023-05-02T14:50:21.537Z,10.57
2023-05-02T14:51:56.271Z,10.80
2023-05-02T14:53:32.398Z,11.20
2023-05-02T14:55:06.303Z,11.30
2023-05-02T14:56:39.365Z,11.50
2023-05-02T14:58:12.567Z,11.67
2023-05-02T14:59:46.177Z,12.53
2023-05-02T15:01:19.952Z,11.10
2023-05-02T15:02:53.130Z,11.40
2023-05-02T15:04:27.992Z,12.37
2023-05-02T15:06:01.849Z,11.07
2023-05-02T15:07:35.078Z,11.57
2023-05-02T15:09:09.538Z,11.43
2023-05-02T15:10:42.669Z,11.40
2023-05-02T15:12:15.845Z,10.57
2023-05-02T15:13:48.965Z,10.37
2023-05-02T15:15:24.909Z,10.30
2023-05-02T15:16:58.085Z,10.53
2023-05-02T15:18:31.535Z,9.10
2023-05-02T15:20:05.523Z,8.67
2023-05-02T15:21:38.716Z,7.93
2023-05-02T15:23:11.821Z,8.30
2023-05-02T15:24:46.332Z,8.70
2023-05-02T15:26:19.470Z,8.33
2023-05-02T15:27:52.739Z,7.93
2023-05-02T15:29:25.863Z,8.27
2023-05-02T15:30:59.554Z,8.50
2023-05-02T15:32:32.653Z,8.80
2023-05-02T15:34:05.950Z,8.20
2023-05-02T15:35:39.476Z,7.97
2023-05-02T15:37:12.625Z,8.80
2023-05-02T15:38:45.726Z,7.40
2023-05-02T15:40:20.920Z,7.47
2023-05-02T15:41:54.018Z,8.33
2023-05-02T15:43:27.913Z,7.97
2023-05-02T15:45:01.078Z,7.13
2023-05-02T15:46:34.683Z,7.43
2023-05-02T15:48:07.861Z,7.67
2023-05-02T15:49:41.146Z,6.87
2023-05-02T15:51:14.265Z,7.03
2023-05-02T15:52:47.896Z,7.10
2023-05-02T15:54:20.996Z,7.40
2023-05-02T15:55:55.563Z,6.53
2023-05-02T15:57:29.231Z,6.20
2023-05-02T15:59:02.385Z,5.80
2023-05-02T16:00:35.639Z,4.97
2023-05-02T16:02:08.731Z,4.70
2023-05-02T16:03:43.311Z,4.40
2023-05-02T16:05:17.149Z,3.73
2023-05-02T16:06:50.318Z,3.33
2023-05-02T16:08:23.558Z,3.43
2023-05-02T16:09:56.633Z,3.13
2023-05-02T16:11:31.341Z,3.27
2023-05-02T16:13:04.697Z,3.57
2023-05-02T16:14:38.097Z,3.60
2023-05-02T16:16:11.288Z,3.80
2023-05-02T16:17:44.443Z,4.20
2023-05-02T16:19:17.697Z,3.93
2023-05-02T16:20:52.862Z,3.70
2023-05-02T16:22:28.368Z,4.80
2023-05-02T16:24:01.600Z,6.63
2023-05-02T16:25:33.919Z,5.93
2023-05-02T16:27:08.868Z,5.03
2023-05-02T16:28:41.962Z,8.10
2023-05-02T16:30:15.789Z,5.03
2023-05-02T16:31:48.942Z,4.63
2023-05-02T16:33:22.586Z,4.67
2023-05-02T16:34:55.791Z,4.33
2023-05-02T16:36:29.088Z,5.73
2023-05-02T16:38:02.272Z,6.33
2023-05-02T16:39:35.932Z,6.23
2023-05-02T16:41:10.224Z,4.90
2023-05-02T16:42:45.057Z,5.97
2023-05-02T16:44:18.222Z,5.93
2023-05-02T16:46:01.459Z,5.33
2023-05-02T16:47:34.991Z,5.57
2023-05-02T16:49:08.198Z,6.70
2023-05-02T16:50:41.496Z,5.83
2023-05-02T16:52:15.006Z,6.00
2023-05-02T16:53:48.159Z,5.80
2023-05-02T16:55:21.850Z,5.90
2023-05-02T16:56:55.761Z,5.23
2023-05-02T16:58:30.565Z,5.87
2023-05-02T17:00:04.753Z,6.00
2023-05-02T17:01:38.361Z,5.83
2023-05-02T17:03:11.688Z,5.30
2023-05-02T17:04:44.913Z,5.73
2023-05-02T17:06:18.037Z,5.23
2023-05-02T17:07:51.209Z,5.23
2023-05-02T17:09:24.476Z,5.20
2023-05-02T17:10:58.007Z,5.10
2023-05-02T17:12:31.651Z,5.17
2023-05-02T17:14:06.355Z,5.20
2023-05-02T17:15:39.903Z,4.77
2023-05-02T17:17:13.055Z,4.80
2023-05-02T17:18:46.301Z,4.73
2023-05-02T17:20:20.512Z,4.70
2023-05-02T17:21:54.179Z,4.47
2023-05-02T17:23:29.580Z,4.77
2023-05-02T17:25:02.791Z,4.43
2023-05-02T17:26:35.844Z,4.70
2023-05-02T17:28:09.023Z,4.70
2023-05-02T17:29:43.498Z,4.67
2023-05-02T17:31:16.952Z,5.03
2023-05-02T17:32:50.214Z,4.67
2023-05-02T17:34:26.700Z,4.70
2023-05-02T17:35:59.752Z,4.47
2023-05-02T17:37:32.962Z,4.33
2023-05-02T17:39:06.160Z,5.07
2023-05-02T17:40:39.248Z,4.83
2023-05-02T17:42:12.593Z,4.80
2023-05-02T17:43:45.733Z,4.40
2023-05-02T17:45:20.189Z,4.63
2023-05-02T17:46:53.304Z,4.50
2023-05-02T17:48:26.415Z,5.37
2023-05-02T17:49:59.936Z,5.67
2023-05-02T17:51:33.779Z,5.60
2023-05-02T17:53:07.223Z,5.07
2023-05-02T17:54:40.285Z,4.90
2023-05-02T17:56:15.945Z,5.00
2023-05-02T17:57:49.438Z,6.47
2023-05-02T17:59:23.062Z,5.53
2023-05-02T18:00:58.448Z,5.60
2023-05-02T18:02:31.659Z,6.40
2023-05-02T18:04:05.356Z,4.57
2023-05-02T18:05:39.757Z,4.10
2023-05-02T18:07:12.838Z,3.50
2023-05-02T18:08:46.328Z,4.03
2023-05-02T18:10:20.098Z,4.50
2023-05-02T18:11:53.482Z,5.50
2023-05-02T18:13:26.788Z,5.33
2023-05-02T18:15:00.228Z,4.13
2023-05-02T18:16:36.308Z,4.10
2023-05-02T18:18:09.670Z,3.70
2023-05-02T18:19:42.790Z,3.80
2023-05-02T18:21:22.452Z,3.93
2023-05-02T18:22:58.953Z,4.00
2023-05-02T18:24:32.736Z,3.90
2023-05-02T18:26:12.148Z,3.83
2023-05-02T18:27:45.353Z,3.77
2023-05-02T18:29:18.439Z,3.50
2023-05-02T18:30:51.529Z,4.00
2023-05-02T18:32:26.314Z,3.43
2023-05-02T18:33:59.413Z,3.17
2023-05-02T18:35:32.608Z,3.57
2023-05-02T18:37:05.826Z,3.80
2023-05-02T18:38:40.474Z,3.33
2023-05-02T18:40:13.668Z,3.30
2023-05-02T18:41:46.706Z,3.87
2023-05-02T18:43:19.931Z,3.97
2023-05-02T18:44:53.021Z,3.70
2023-05-02T18:46:26.185Z,3.97
2023-05-02T18:48:01.098Z,4.20
2023-05-02T18:49:34.244Z,3.93
2023-05-02T18:51:07.751Z,3.80
2023-05-02T18:52:40.857Z,3.80
2023-05-02T18:54:14.089Z,4.20
2023-05-02T18:55:47.266Z,5.40
2023-05-02T18:57:20.393Z,6.00
2023-05-02T18:58:56.392Z,4.77
2023-05-02T19:00:31.321Z,4.30
2023-05-02T19:02:04.628Z,3.93
2023-05-02T19:03:39.218Z,4.03
2023-05-02T19:05:12.443Z,4.00
2023-05-02T19:06:45.666Z,4.20
2023-05-02T19:08:18.792Z,4.27
2023-05-02T19:09:52.336Z,4.07
2023-05-02T19:11:26.263Z,3.70
2023-05-02T19:12:59.356Z,4.70
2023-05-02T19:14:33.342Z,4.10
2023-05-02T19:16:06.662Z,3.87
2023-05-02T19:17:39.955Z,4.10
2023-05-02T19:19:14.456Z,3.93
2023-05-02T19:20:47.544Z,3.87
2023-05-02T19:22:22.178Z,4.03
2023-05-02T19:23:56.542Z,3.97
2023-05-02T19:25:29.750Z,3.43
2023-05-02T19:27:05.833Z,3.70
2023-05-02T19:28:39.290Z,3.90
2023-05-02T19:30:13.643Z,3.80
2023-05-02T19:31:46.773Z,3.60
2023-05-02T19:33:20.151Z,3.60
2023-05-02T19:34:54.760Z,3.63
2023-05-02T19:36:28.455Z,3.40
2023-05-02T19:38:01.626Z,3.87
2023-05-02T19:39:34.714Z,5.30
2023-05-02T19:41:09.011Z,5.00
2023-05-02T19:42:42.125Z,4.37
2023-05-02T19:44:15.185Z,3.60
2023-05-02T19:45:48.276Z,3.90
2023-05-02T19:47:21.332Z,3.40
2023-05-02T19:48:54.407Z,3.30
2023-05-02T19:50:28.847Z,3.23
2023-05-02T19:52:02.016Z,3.40
2023-05-02T19:53:36.648Z,3.33
2023-05-02T19:55:10.625Z,3.33
2023-05-02T19:56:44.364Z,3.03
2023-05-02T19:58:17.481Z,3.30
2023-05-02T19:59:50.587Z,3.77
2023-05-02T20:01:23.861Z,3.43
2023-05-02T20:02:57.321Z,4.77
2023-05-02T20:04:30.541Z,4.10
2023-05-02T20:06:05.258Z,4.10
2023-05-02T20:07:38.327Z,3.80
2023-05-02T20:09:11.588Z,3.47
2023-05-02T20:10:44.982Z,3.57
2023-05-02T20:12:18.152Z,3.80
2023-05-02T20:13:51.467Z,3.63
2023-05-02T20:15:24.862Z,3.93
2023-05-02T20:17:01.726Z,3.90
2023-05-02T20:18:35.306Z,3.90
2023-05-02T20:20:11.345Z,3.87
2023-05-02T20:21:45.772Z,3.77
2023-05-02T20:23:18.840Z,4.00
2023-05-02T20:24:51.875Z,4.23
2023-05-02T20:26:26.494Z,3.60
2023-05-02T20:27:59.664Z,3.80
2023-05-02T20:29:32.753Z,3.47
2023-05-02T20:31:05.869Z,3.27
2023-05-02T20:32:39.117Z,3.63
2023-05-02T20:34:12.217Z,3.63
2023-05-02T20:35:45.774Z,3.40
2023-05-02T20:37:20.272Z,3.57
2023-05-02T20:38:53.308Z,3.60
2023-05-02T20:40:27.652Z,3.30
2023-05-02T20:42:01.376Z,3.67
2023-05-02T20:43:35.357Z,3.30
2023-05-02T20:45:12.281Z,3.37
2023-05-02T20:46:45.664Z,3.47
2023-05-02T20:48:18.960Z,3.57
2023-05-02T20:49:52.124Z,3.90
2023-05-02T20:51:28.203Z,3.90
2023-05-02T20:53:03.397Z,4.00
2023-05-02T20:54:36.441Z,3.93
2023-05-02T20:56:09.530Z,3.80
2023-05-02T20:57:42.642Z,4.03